sensor_id;sensor_type;location;lat;lon;timestamp;temperature;humidity
4637;DHT22;2331;48.806;9.140;2022-09-17T00:02:15;12.80;1.00
4637;DHT22;2331;48.806;9.140;2022-09-17T00:04:43;12.70;1.00
4637;DHT22;2331;48.806;9.140;2022-09-17T00:07:09;12.60;1.00
4637;DHT22;2331;48.806;9.140;2022-09-17T00:09:36;12.60;1.00
4637;DHT22;2331;48.806;9.140;2022-09-17T00:12:04;12.60;1.00
4637;DHT22;2331;48.806;9.140;2022-09-17T00:14:30;12.70;1.00
4637;DHT22;2331;48.806;9.140;2022-09-17T00:16:57;12.70;1.00
4637;DHT22;2331;48.806;9.140;2022-09-17T00:19:24;12.70;1.00
4637;DHT22;2331;48.806;9.140;2022-09-17T00:21:52;12.70;1.00
4637;DHT22;2331;48.806;9.140;2022-09-17T00:24:19;12.60;1.00
4637;DHT22;2331;48.806;9.140;2022-09-17T00:26:47;12.60;1.00
4637;DHT22;2331;48.806;9.140;2022-09-17T00:29:14;12.60;1.00
4637;DHT22;2331;48.806;9.140;2022-09-17T00:31:41;12.60;1.00
4637;DHT22;2331;48.806;9.140;2022-09-17T00:34:08;12.70;1.00
4637;DHT22;2331;48.806;9.140;2022-09-17T00:36:37;12.90;1.00
4637;DHT22;2331;48.806;9.140;2022-09-17T00:39:07;12.70;1.00
4637;DHT22;2331;48.806;9.140;2022-09-17T00:41:36;12.60;1.00
4637;DHT22;2331;48.806;9.140;2022-09-17T00:47:03;12.60;1.00
4637;DHT22;2331;48.806;9.140;2022-09-17T00:49:31;12.60;1.00
4637;DHT22;2331;48.806;9.140;2022-09-17T00:52:03;12.70;1.00
4637;DHT22;2331;48.806;9.140;2022-09-17T00:54:33;12.60;1.00
4637;DHT22;2331;48.806;9.140;2022-09-17T00:57:00;12.50;1.00
4637;DHT22;2331;48.806;9.140;2022-09-17T00:59:27;12.40;1.00
4637;DHT22;2331;48.806;9.140;2022-09-17T01:01:54;12.50;1.00
4637;DHT22;2331;48.806;9.140;2022-09-17T01:04:23;12.50;1.00
4637;DHT22;2331;48.806;9.140;2022-09-17T01:06:56;12.50;1.00
4637;DHT22;2331;48.806;9.140;2022-09-17T01:09:35;12.50;1.00
4637;DHT22;2331;48.806;9.140;2022-09-17T01:12:25;12.40;1.00
4637;DHT22;2331;48.806;9.140;2022-09-17T01:15:08;12.40;1.00
4637;DHT22;2331;48.806;9.140;2022-09-17T01:17:42;12.50;1.00
4637;DHT22;2331;48.806;9.140;2022-09-17T01:20:34;12.30;1.00
4637;DHT22;2331;48.806;9.140;2022-09-17T01:23:34;12.30;1.00
4637;DHT22;2331;48.806;9.140;2022-09-17T01:26:25;12.30;1.00
4637;DHT22;2331;48.806;9.140;2022-09-17T01:29:02;12.30;1.00
4637;DHT22;2331;48.806;9.140;2022-09-17T01:31:36;12.20;1.00
4637;DHT22;2331;48.806;9.140;2022-09-17T01:34:12;12.30;1.00
4637;DHT22;2331;48.806;9.140;2022-09-17T01:36:56;12.40;1.00
4637;DHT22;2331;48.806;9.140;2022-09-17T01:39:33;12.50;1.00
4637;DHT22;2331;48.806;9.140;2022-09-17T01:42:08;12.50;1.00
4637;DHT22;2331;48.806;9.140;2022-09-17T01:44:44;12.40;1.00
4637;DHT22;2331;48.806;9.140;2022-09-17T01:47:16;12.50;1.00
4637;DHT22;2331;48.806;9.140;2022-09-17T01:49:44;12.40;1.00
4637;DHT22;2331;48.806;9.140;2022-09-17T01:52:12;12.40;1.00
4637;DHT22;2331;48.806;9.140;2022-09-17T01:54:43;12.40;1.00
4637;DHT22;2331;48.806;9.140;2022-09-17T01:57:14;12.30;1.00
4637;DHT22;2331;48.806;9.140;2022-09-17T01:59:45;12.30;1.00
4637;DHT22;2331;48.806;9.140;2022-09-17T02:02:19;12.20;1.00
4637;DHT22;2331;48.806;9.140;2022-09-17T02:04:53;12.10;1.00
4637;DHT22;2331;48.806;9.140;2022-09-17T02:07:21;12.10;1.00
4637;DHT22;2331;48.806;9.140;2022-09-17T02:09:53;12.20;1.00
4637;DHT22;2331;48.806;9.140;2022-09-17T02:12:27;12.10;1.00
4637;DHT22;2331;48.806;9.140;2022-09-17T02:14:58;12.10;1.00
4637;DHT22;2331;48.806;9.140;2022-09-17T02:17:30;12.10;1.00
4637;DHT22;2331;48.806;9.140;2022-09-17T02:19:58;12.20;1.00
4637;DHT22;2331;48.806;9.140;2022-09-17T02:22:28;12.20;1.00
4637;DHT22;2331;48.806;9.140;2022-09-17T02:25:01;12.20;1.00
4637;DHT22;2331;48.806;9.140;2022-09-17T02:27:36;12.10;1.00
4637;DHT22;2331;48.806;9.140;2022-09-17T02:30:06;12.10;1.00
4637;DHT22;2331;48.806;9.140;2022-09-17T02:32:35;12.00;1.00
4637;DHT22;2331;48.806;9.140;2022-09-17T02:35:02;12.00;1.00
4637;DHT22;2331;48.806;9.140;2022-09-17T02:37:28;12.10;1.00
4637;DHT22;2331;48.806;9.140;2022-09-17T02:39:55;12.20;1.00
4637;DHT22;2331;48.806;9.140;2022-09-17T02:42:27;12.20;1.00
4637;DHT22;2331;48.806;9.140;2022-09-17T02:45:03;12.10;1.00
4637;DHT22;2331;48.806;9.140;2022-09-17T02:48:00;12.20;1.00
4637;DHT22;2331;48.806;9.140;2022-09-17T02:50:41;12.20;1.00
4637;DHT22;2331;48.806;9.140;2022-09-17T02:53:23;12.20;1.00
4637;DHT22;2331;48.806;9.140;2022-09-17T02:56:00;12.20;1.00
4637;DHT22;2331;48.806;9.140;2022-09-17T02:58:31;12.10;1.00
4637;DHT22;2331;48.806;9.140;2022-09-17T03:01:03;12.10;1.00
4637;DHT22;2331;48.806;9.140;2022-09-17T03:03:36;12.10;1.00
4637;DHT22;2331;48.806;9.140;2022-09-17T03:06:05;12.10;1.00
4637;DHT22;2331;48.806;9.140;2022-09-17T03:08:34;12.00;1.00
4637;DHT22;2331;48.806;9.140;2022-09-17T03:11:02;12.00;1.00
4637;DHT22;2331;48.806;9.140;2022-09-17T03:13:30;12.00;1.00
4637;DHT22;2331;48.806;9.140;2022-09-17T03:15:57;12.00;1.00
4637;DHT22;2331;48.806;9.140;2022-09-17T03:18:24;11.90;1.00
4637;DHT22;2331;48.806;9.140;2022-09-17T03:20:52;11.90;1.00
4637;DHT22;2331;48.806;9.140;2022-09-17T03:23:18;11.90;1.00
4637;DHT22;2331;48.806;9.140;2022-09-17T03:25:45;12.00;1.00
4637;DHT22;2331;48.806;9.140;2022-09-17T03:28:14;12.00;1.00
4637;DHT22;2331;48.806;9.140;2022-09-17T03:30:42;12.00;1.00
4637;DHT22;2331;48.806;9.140;2022-09-17T03:33:09;11.90;1.00
4637;DHT22;2331;48.806;9.140;2022-09-17T03:35:35;11.90;1.00
4637;DHT22;2331;48.806;9.140;2022-09-17T03:38:04;11.90;1.00
4637;DHT22;2331;48.806;9.140;2022-09-17T03:40:30;11.80;1.00
4637;DHT22;2331;48.806;9.140;2022-09-17T03:42:57;11.80;1.00
4637;DHT22;2331;48.806;9.140;2022-09-17T03:45:24;11.80;1.00
4637;DHT22;2331;48.806;9.140;2022-09-17T03:47:50;11.70;1.00
4637;DHT22;2331;48.806;9.140;2022-09-17T03:50:17;11.80;1.00
4637;DHT22;2331;48.806;9.140;2022-09-17T03:52:44;11.80;1.00
4637;DHT22;2331;48.806;9.140;2022-09-17T03:55:12;11.80;1.00
4637;DHT22;2331;48.806;9.140;2022-09-17T03:57:40;11.90;1.00
4637;DHT22;2331;48.806;9.140;2022-09-17T04:00:08;11.90;1.00
4637;DHT22;2331;48.806;9.140;2022-09-17T04:02:37;11.80;1.00
4637;DHT22;2331;48.806;9.140;2022-09-17T04:05:05;11.90;1.00
4637;DHT22;2331;48.806;9.140;2022-09-17T04:07:32;11.90;1.00
4637;DHT22;2331;48.806;9.140;2022-09-17T04:09:58;11.80;1.00
4637;DHT22;2331;48.806;9.140;2022-09-17T04:12:26;11.70;1.00
4637;DHT22;2331;48.806;9.140;2022-09-17T04:14:53;11.60;1.00
4637;DHT22;2331;48.806;9.140;2022-09-17T04:17:20;11.70;1.00
4637;DHT22;2331;48.806;9.140;2022-09-17T04:19:46;11.60;1.00
4637;DHT22;2331;48.806;9.140;2022-09-17T04:22:14;11.70;1.00
4637;DHT22;2331;48.806;9.140;2022-09-17T04:24:41;11.50;1.00
4637;DHT22;2331;48.806;9.140;2022-09-17T04:27:08;11.50;1.00
4637;DHT22;2331;48.806;9.140;2022-09-17T04:29:36;11.60;1.00
4637;DHT22;2331;48.806;9.140;2022-09-17T04:32:03;11.50;1.00
4637;DHT22;2331;48.806;9.140;2022-09-17T04:34:29;11.50;1.00
4637;DHT22;2331;48.806;9.140;2022-09-17T04:36:56;11.50;1.00
4637;DHT22;2331;48.806;9.140;2022-09-17T04:39:23;11.40;1.00
4637;DHT22;2331;48.806;9.140;2022-09-17T04:41:50;11.40;1.00
4637;DHT22;2331;48.806;9.140;2022-09-17T04:44:16;11.50;1.00
4637;DHT22;2331;48.806;9.140;2022-09-17T04:46:45;11.40;1.00
4637;DHT22;2331;48.806;9.140;2022-09-17T04:49:11;11.50;1.00
4637;DHT22;2331;48.806;9.140;2022-09-17T04:51:38;11.40;1.00
4637;DHT22;2331;48.806;9.140;2022-09-17T04:54:05;11.40;1.00
4637;DHT22;2331;48.806;9.140;2022-09-17T04:56:32;11.30;1.00
4637;DHT22;2331;48.806;9.140;2022-09-17T04:58:59;11.20;1.00
4637;DHT22;2331;48.806;9.140;2022-09-17T05:01:25;11.20;1.00
4637;DHT22;2331;48.806;9.140;2022-09-17T05:03:54;11.30;1.00
4637;DHT22;2331;48.806;9.140;2022-09-17T05:06:20;11.30;1.00
4637;DHT22;2331;48.806;9.140;2022-09-17T05:08:47;11.30;1.00
4637;DHT22;2331;48.806;9.140;2022-09-17T05:11:14;11.30;1.00
4637;DHT22;2331;48.806;9.140;2022-09-17T05:13:40;11.30;1.00
4637;DHT22;2331;48.806;9.140;2022-09-17T05:16:07;11.30;1.00
4637;DHT22;2331;48.806;9.140;2022-09-17T05:18:34;11.20;1.00
4637;DHT22;2331;48.806;9.140;2022-09-17T05:21:03;11.30;1.00
4637;DHT22;2331;48.806;9.140;2022-09-17T05:23:30;11.20;1.00
4637;DHT22;2331;48.806;9.140;2022-09-17T05:25:57;11.20;1.00
4637;DHT22;2331;48.806;9.140;2022-09-17T05:28:24;11.20;1.00
4637;DHT22;2331;48.806;9.140;2022-09-17T05:30:51;11.20;1.00
4637;DHT22;2331;48.806;9.140;2022-09-17T05:33:18;11.40;1.00
4637;DHT22;2331;48.806;9.140;2022-09-17T05:35:45;11.50;1.00
4637;DHT22;2331;48.806;9.140;2022-09-17T05:38:14;11.40;1.00
4637;DHT22;2331;48.806;9.140;2022-09-17T05:40:42;11.30;1.00
4637;DHT22;2331;48.806;9.140;2022-09-17T05:43:10;11.30;1.00
4637;DHT22;2331;48.806;9.140;2022-09-17T05:45:37;11.30;1.00
4637;DHT22;2331;48.806;9.140;2022-09-17T05:48:06;11.20;1.00
4637;DHT22;2331;48.806;9.140;2022-09-17T05:50:33;11.40;1.00
4637;DHT22;2331;48.806;9.140;2022-09-17T05:53:03;11.20;1.00
4637;DHT22;2331;48.806;9.140;2022-09-17T05:55:32;11.20;1.00
4637;DHT22;2331;48.806;9.140;2022-09-17T05:57:59;11.20;1.00
4637;DHT22;2331;48.806;9.140;2022-09-17T06:00:26;11.30;1.00
4637;DHT22;2331;48.806;9.140;2022-09-17T06:02:54;11.30;1.00
4637;DHT22;2331;48.806;9.140;2022-09-17T06:05:22;11.20;1.00
4637;DHT22;2331;48.806;9.140;2022-09-17T06:07:49;11.30;1.00
4637;DHT22;2331;48.806;9.140;2022-09-17T06:10:16;11.40;1.00
4637;DHT22;2331;48.806;9.140;2022-09-17T06:12:44;11.40;1.00
4637;DHT22;2331;48.806;9.140;2022-09-17T06:15:11;11.30;1.00
4637;DHT22;2331;48.806;9.140;2022-09-17T06:17:39;11.40;1.00
4637;DHT22;2331;48.806;9.140;2022-09-17T06:20:08;11.30;1.00
4637;DHT22;2331;48.806;9.140;2022-09-17T06:22:35;11.30;1.00
4637;DHT22;2331;48.806;9.140;2022-09-17T06:25:02;11.30;1.00
4637;DHT22;2331;48.806;9.140;2022-09-17T06:27:30;11.30;1.00
4637;DHT22;2331;48.806;9.140;2022-09-17T06:29:58;11.40;1.00
4637;DHT22;2331;48.806;9.140;2022-09-17T06:32:25;11.40;1.00
4637;DHT22;2331;48.806;9.140;2022-09-17T06:34:52;11.40;1.00
4637;DHT22;2331;48.806;9.140;2022-09-17T06:37:20;11.30;1.00
4637;DHT22;2331;48.806;9.140;2022-09-17T06:39:52;11.30;1.00
4637;DHT22;2331;48.806;9.140;2022-09-17T06:42:19;11.30;1.00
4637;DHT22;2331;48.806;9.140;2022-09-17T06:44:45;11.30;1.00
4637;DHT22;2331;48.806;9.140;2022-09-17T06:47:14;11.30;1.00
4637;DHT22;2331;48.806;9.140;2022-09-17T06:49:40;11.30;1.00
4637;DHT22;2331;48.806;9.140;2022-09-17T06:52:07;11.30;1.00
4637;DHT22;2331;48.806;9.140;2022-09-17T06:54:34;11.40;1.00
4637;DHT22;2331;48.806;9.140;2022-09-17T06:57:01;11.40;1.00
4637;DHT22;2331;48.806;9.140;2022-09-17T06:59:27;11.20;1.00
4637;DHT22;2331;48.806;9.140;2022-09-17T07:01:54;11.30;1.00
4637;DHT22;2331;48.806;9.140;2022-09-17T07:04:22;11.40;1.00
4637;DHT22;2331;48.806;9.140;2022-09-17T07:06:49;11.30;1.00
4637;DHT22;2331;48.806;9.140;2022-09-17T07:09:16;11.20;1.00
4637;DHT22;2331;48.806;9.140;2022-09-17T07:11:43;11.20;1.00
4637;DHT22;2331;48.806;9.140;2022-09-17T07:14:09;11.20;1.00
4637;DHT22;2331;48.806;9.140;2022-09-17T07:16:36;11.20;1.00
4637;DHT22;2331;48.806;9.140;2022-09-17T07:19:03;11.10;1.00
4637;DHT22;2331;48.806;9.140;2022-09-17T07:21:32;11.20;1.00
4637;DHT22;2331;48.806;9.140;2022-09-17T07:23:58;11.40;1.00
4637;DHT22;2331;48.806;9.140;2022-09-17T07:26:25;11.40;1.00
4637;DHT22;2331;48.806;9.140;2022-09-17T07:28:52;11.20;1.00
4637;DHT22;2331;48.806;9.140;2022-09-17T07:31:19;11.10;1.00
4637;DHT22;2331;48.806;9.140;2022-09-17T07:33:45;11.30;1.00
4637;DHT22;2331;48.806;9.140;2022-09-17T07:36:14;11.20;1.00
4637;DHT22;2331;48.806;9.140;2022-09-17T07:38:43;11.20;1.00
4637;DHT22;2331;48.806;9.140;2022-09-17T07:41:11;11.30;1.00
4637;DHT22;2331;48.806;9.140;2022-09-17T07:43:39;11.30;1.00
4637;DHT22;2331;48.806;9.140;2022-09-17T07:46:09;11.40;1.00
4637;DHT22;2331;48.806;9.140;2022-09-17T07:48:38;11.40;1.00
4637;DHT22;2331;48.806;9.140;2022-09-17T07:51:05;11.40;1.00
4637;DHT22;2331;48.806;9.140;2022-09-17T07:53:32;11.30;1.00
4637;DHT22;2331;48.806;9.140;2022-09-17T07:56:00;11.30;1.00
4637;DHT22;2331;48.806;9.140;2022-09-17T07:58:28;11.40;1.00
4637;DHT22;2331;48.806;9.140;2022-09-17T08:00:59;11.30;1.00
4637;DHT22;2331;48.806;9.140;2022-09-17T08:03:26;11.50;1.00
4637;DHT22;2331;48.806;9.140;2022-09-17T08:05:53;11.40;1.00
4637;DHT22;2331;48.806;9.140;2022-09-17T08:08:20;11.30;1.00
4637;DHT22;2331;48.806;9.140;2022-09-17T08:10:47;11.20;1.00
4637;DHT22;2331;48.806;9.140;2022-09-17T08:13:15;11.30;1.00
4637;DHT22;2331;48.806;9.140;2022-09-17T08:15:41;11.30;1.00
4637;DHT22;2331;48.806;9.140;2022-09-17T08:18:08;11.30;1.00
4637;DHT22;2331;48.806;9.140;2022-09-17T08:20:35;11.20;1.00
4637;DHT22;2331;48.806;9.140;2022-09-17T08:23:02;11.30;1.00
4637;DHT22;2331;48.806;9.140;2022-09-17T08:25:28;11.40;1.00
4637;DHT22;2331;48.806;9.140;2022-09-17T08:27:55;11.30;1.00
4637;DHT22;2331;48.806;9.140;2022-09-17T08:30:23;11.40;1.00
4637;DHT22;2331;48.806;9.140;2022-09-17T08:32:50;11.40;1.00
4637;DHT22;2331;48.806;9.140;2022-09-17T08:35:17;11.50;1.00
4637;DHT22;2331;48.806;9.140;2022-09-17T08:37:44;11.40;1.00
4637;DHT22;2331;48.806;9.140;2022-09-17T08:40:16;11.50;1.00
4637;DHT22;2331;48.806;9.140;2022-09-17T08:42:50;11.40;1.00
4637;DHT22;2331;48.806;9.140;2022-09-17T08:45:18;11.50;1.00
4637;DHT22;2331;48.806;9.140;2022-09-17T08:47:47;11.50;1.00
4637;DHT22;2331;48.806;9.140;2022-09-17T08:50:16;11.60;1.00
4637;DHT22;2331;48.806;9.140;2022-09-17T08:53:08;11.60;1.00
4637;DHT22;2331;48.806;9.140;2022-09-17T08:55:42;11.80;1.00
4637;DHT22;2331;48.806;9.140;2022-09-17T08:58:29;11.80;1.00
4637;DHT22;2331;48.806;9.140;2022-09-17T09:01:06;11.80;1.00
4637;DHT22;2331;48.806;9.140;2022-09-17T09:03:48;11.70;1.00
4637;DHT22;2331;48.806;9.140;2022-09-17T09:06:18;11.90;1.00
4637;DHT22;2331;48.806;9.140;2022-09-17T09:08:52;12.00;1.00
4637;DHT22;2331;48.806;9.140;2022-09-17T09:11:24;12.00;1.00
4637;DHT22;2331;48.806;9.140;2022-09-17T09:13:56;12.00;1.00
4637;DHT22;2331;48.806;9.140;2022-09-17T09:16:28;12.00;1.00
4637;DHT22;2331;48.806;9.140;2022-09-17T09:19:09;12.10;1.00
4637;DHT22;2331;48.806;9.140;2022-09-17T09:21:44;12.10;1.00
4637;DHT22;2331;48.806;9.140;2022-09-17T09:24:19;12.20;1.00
4637;DHT22;2331;48.806;9.140;2022-09-17T09:26:52;12.20;1.00
4637;DHT22;2331;48.806;9.140;2022-09-17T09:29:38;12.20;1.00
4637;DHT22;2331;48.806;9.140;2022-09-17T09:32:15;12.10;1.00
4637;DHT22;2331;48.806;9.140;2022-09-17T09:34:48;12.10;1.00
4637;DHT22;2331;48.806;9.140;2022-09-17T09:37:19;12.10;1.00
4637;DHT22;2331;48.806;9.140;2022-09-17T09:39:48;12.20;1.00
4637;DHT22;2331;48.806;9.140;2022-09-17T09:42:25;12.20;1.00
4637;DHT22;2331;48.806;9.140;2022-09-17T09:44:55;12.30;1.00
4637;DHT22;2331;48.806;9.140;2022-09-17T09:47:34;12.40;1.00
4637;DHT22;2331;48.806;9.140;2022-09-17T09:50:17;12.40;1.00
4637;DHT22;2331;48.806;9.140;2022-09-17T09:52:57;12.20;1.00
4637;DHT22;2331;48.806;9.140;2022-09-17T09:55:39;12.30;1.00
4637;DHT22;2331;48.806;9.140;2022-09-17T09:58:19;12.20;1.00
4637;DHT22;2331;48.806;9.140;2022-09-17T10:00:48;12.40;1.00
4637;DHT22;2331;48.806;9.140;2022-09-17T10:03:18;12.30;1.00
4637;DHT22;2331;48.806;9.140;2022-09-17T10:05:54;12.40;1.00
4637;DHT22;2331;48.806;9.140;2022-09-17T10:08:22;12.40;1.00
4637;DHT22;2331;48.806;9.140;2022-09-17T10:10:55;12.50;1.00
4637;DHT22;2331;48.806;9.140;2022-09-17T10:13:22;12.60;1.00
4637;DHT22;2331;48.806;9.140;2022-09-17T10:15:49;12.70;1.00
4637;DHT22;2331;48.806;9.140;2022-09-17T10:18:17;12.80;1.00
4637;DHT22;2331;48.806;9.140;2022-09-17T10:20:50;12.80;1.00
4637;DHT22;2331;48.806;9.140;2022-09-17T10:23:18;13.00;1.00
4637;DHT22;2331;48.806;9.140;2022-09-17T10:25:46;13.00;1.00
4637;DHT22;2331;48.806;9.140;2022-09-17T10:28:29;13.10;1.00
4637;DHT22;2331;48.806;9.140;2022-09-17T10:30:58;13.20;1.00
4637;DHT22;2331;48.806;9.140;2022-09-17T10:33:28;13.40;1.00
4637;DHT22;2331;48.806;9.140;2022-09-17T10:36:01;13.40;1.00
4637;DHT22;2331;48.806;9.140;2022-09-17T10:38:33;13.50;1.00
4637;DHT22;2331;48.806;9.140;2022-09-17T10:41:15;13.40;1.00
4637;DHT22;2331;48.806;9.140;2022-09-17T10:43:42;13.50;1.00
4637;DHT22;2331;48.806;9.140;2022-09-17T10:46:13;13.50;1.00
4637;DHT22;2331;48.806;9.140;2022-09-17T10:48:43;13.60;1.00
4637;DHT22;2331;48.806;9.140;2022-09-17T10:51:19;13.50;1.00
4637;DHT22;2331;48.806;9.140;2022-09-17T10:54:04;13.60;1.00
4637;DHT22;2331;48.806;9.140;2022-09-17T10:56:34;13.60;1.00
4637;DHT22;2331;48.806;9.140;2022-09-17T11:01:58;13.60;1.00
4637;DHT22;2331;48.806;9.140;2022-09-17T11:04:42;13.80;1.00
4637;DHT22;2331;48.806;9.140;2022-09-17T11:07:31;13.80;1.00
4637;DHT22;2331;48.806;9.140;2022-09-17T11:10:06;13.90;1.00
4637;DHT22;2331;48.806;9.140;2022-09-17T11:12:41;13.90;1.00
4637;DHT22;2331;48.806;9.140;2022-09-17T11:15:24;14.10;1.00
4637;DHT22;2331;48.806;9.140;2022-09-17T11:21:20;14.20;1.00
4637;DHT22;2331;48.806;9.140;2022-09-17T11:26:49;14.20;1.00
4637;DHT22;2331;48.806;9.140;2022-09-17T11:29:37;14.30;1.00
4637;DHT22;2331;48.806;9.140;2022-09-17T11:32:14;14.50;1.00
4637;DHT22;2331;48.806;9.140;2022-09-17T11:34:48;14.30;1.00
4637;DHT22;2331;48.806;9.140;2022-09-17T11:37:21;14.50;1.00
4637;DHT22;2331;48.806;9.140;2022-09-17T11:39:53;14.50;1.00
4637;DHT22;2331;48.806;9.140;2022-09-17T11:42:26;14.50;1.00
4637;DHT22;2331;48.806;9.140;2022-09-17T11:44:57;14.50;1.00
4637;DHT22;2331;48.806;9.140;2022-09-17T11:47:28;14.40;1.00
4637;DHT22;2331;48.806;9.140;2022-09-17T11:49:59;14.40;1.00
4637;DHT22;2331;48.806;9.140;2022-09-17T11:52:30;14.60;1.00
4637;DHT22;2331;48.806;9.140;2022-09-17T11:55:02;14.70;1.00
4637;DHT22;2331;48.806;9.140;2022-09-17T11:57:35;14.90;1.00
4637;DHT22;2331;48.806;9.140;2022-09-17T12:00:11;14.80;1.00
4637;DHT22;2331;48.806;9.140;2022-09-17T12:02:46;14.70;1.00
4637;DHT22;2331;48.806;9.140;2022-09-17T12:05:18;14.80;1.00
4637;DHT22;2331;48.806;9.140;2022-09-17T12:07:52;14.80;1.00
4637;DHT22;2331;48.806;9.140;2022-09-17T12:10:33;14.80;1.00
4637;DHT22;2331;48.806;9.140;2022-09-17T12:13:10;14.70;1.00
4637;DHT22;2331;48.806;9.140;2022-09-17T12:15:42;14.50;1.00
4637;DHT22;2331;48.806;9.140;2022-09-17T12:18:19;14.50;1.00
4637;DHT22;2331;48.806;9.140;2022-09-17T12:20:51;14.60;1.00
4637;DHT22;2331;48.806;9.140;2022-09-17T12:23:26;14.60;1.00
4637;DHT22;2331;48.806;9.140;2022-09-17T12:25:58;14.50;1.00
4637;DHT22;2331;48.806;9.140;2022-09-17T12:28:31;14.30;1.00
4637;DHT22;2331;48.806;9.140;2022-09-17T12:31:04;14.20;1.00
4637;DHT22;2331;48.806;9.140;2022-09-17T12:33:34;14.20;1.00
4637;DHT22;2331;48.806;9.140;2022-09-17T12:36:19;14.30;1.00
4637;DHT22;2331;48.806;9.140;2022-09-17T12:39:10;14.10;1.00
4637;DHT22;2331;48.806;9.140;2022-09-17T12:41:46;14.00;1.00
4637;DHT22;2331;48.806;9.140;2022-09-17T12:44:29;14.00;1.00
4637;DHT22;2331;48.806;9.140;2022-09-17T12:47:14;13.90;1.00
4637;DHT22;2331;48.806;9.140;2022-09-17T12:49:59;13.60;1.00
4637;DHT22;2331;48.806;9.140;2022-09-17T12:52:36;13.80;1.00
4637;DHT22;2331;48.806;9.140;2022-09-17T12:55:20;13.60;1.00
4637;DHT22;2331;48.806;9.140;2022-09-17T12:57:55;13.50;1.00
4637;DHT22;2331;48.806;9.140;2022-09-17T13:00:25;13.60;1.00
4637;DHT22;2331;48.806;9.140;2022-09-17T13:03:01;13.60;1.00
4637;DHT22;2331;48.806;9.140;2022-09-17T13:05:43;13.40;1.00
4637;DHT22;2331;48.806;9.140;2022-09-17T13:08:40;13.40;1.00
4637;DHT22;2331;48.806;9.140;2022-09-17T13:14:14;13.30;1.00
4637;DHT22;2331;48.806;9.140;2022-09-17T13:16:47;13.20;1.00
4637;DHT22;2331;48.806;9.140;2022-09-17T13:19:24;13.20;1.00
4637;DHT22;2331;48.806;9.140;2022-09-17T13:22:00;13.30;1.00
4637;DHT22;2331;48.806;9.140;2022-09-17T13:24:29;13.30;1.00
4637;DHT22;2331;48.806;9.140;2022-09-17T13:26:58;13.20;1.00
4637;DHT22;2331;48.806;9.140;2022-09-17T13:30:00;13.20;1.00
4637;DHT22;2331;48.806;9.140;2022-09-17T13:32:51;13.40;1.00
4637;DHT22;2331;48.806;9.140;2022-09-17T13:35:49;13.20;1.00
4637;DHT22;2331;48.806;9.140;2022-09-17T13:38:20;13.20;1.00
4637;DHT22;2331;48.806;9.140;2022-09-17T13:40:48;13.20;1.00
4637;DHT22;2331;48.806;9.140;2022-09-17T13:43:17;13.30;1.00
4637;DHT22;2331;48.806;9.140;2022-09-17T13:46:08;13.50;1.00
4637;DHT22;2331;48.806;9.140;2022-09-17T13:48:49;13.70;1.00
4637;DHT22;2331;48.806;9.140;2022-09-17T13:51:51;13.70;1.00
4637;DHT22;2331;48.806;9.140;2022-09-17T13:54:20;13.70;1.00
4637;DHT22;2331;48.806;9.140;2022-09-17T13:57:01;13.70;1.00
4637;DHT22;2331;48.806;9.140;2022-09-17T13:59:31;13.50;1.00
4637;DHT22;2331;48.806;9.140;2022-09-17T14:04:47;13.70;1.00
4637;DHT22;2331;48.806;9.140;2022-09-17T14:07:34;13.80;1.00
4637;DHT22;2331;48.806;9.140;2022-09-17T14:10:41;13.90;1.00
4637;DHT22;2331;48.806;9.140;2022-09-17T14:13:27;13.80;1.00
4637;DHT22;2331;48.806;9.140;2022-09-17T14:16:13;14.00;1.00
4637;DHT22;2331;48.806;9.140;2022-09-17T14:18:56;14.10;1.00
4637;DHT22;2331;48.806;9.140;2022-09-17T14:21:30;14.10;1.00
4637;DHT22;2331;48.806;9.140;2022-09-17T14:23:59;13.80;1.00
4637;DHT22;2331;48.806;9.140;2022-09-17T14:29:48;14.00;1.00
4637;DHT22;2331;48.806;9.140;2022-09-17T14:32:20;14.10;1.00
4637;DHT22;2331;48.806;9.140;2022-09-17T14:34:54;14.00;1.00
4637;DHT22;2331;48.806;9.140;2022-09-17T14:37:23;13.90;1.00
4637;DHT22;2331;48.806;9.140;2022-09-17T14:39:50;14.10;1.00
4637;DHT22;2331;48.806;9.140;2022-09-17T14:42:21;14.10;1.00
4637;DHT22;2331;48.806;9.140;2022-09-17T14:44:55;14.20;1.00
4637;DHT22;2331;48.806;9.140;2022-09-17T14:47:24;14.20;1.00
4637;DHT22;2331;48.806;9.140;2022-09-17T14:49:51;14.10;1.00
4637;DHT22;2331;48.806;9.140;2022-09-17T14:52:28;14.20;1.00
4637;DHT22;2331;48.806;9.140;2022-09-17T14:55:09;14.20;1.00
4637;DHT22;2331;48.806;9.140;2022-09-17T14:57:36;14.20;1.00
4637;DHT22;2331;48.806;9.140;2022-09-17T15:00:03;14.30;1.00
4637;DHT22;2331;48.806;9.140;2022-09-17T15:02:34;14.30;1.00
4637;DHT22;2331;48.806;9.140;2022-09-17T15:05:15;14.20;1.00
4637;DHT22;2331;48.806;9.140;2022-09-17T15:07:44;14.40;1.00
4637;DHT22;2331;48.806;9.140;2022-09-17T15:10:13;14.40;1.00
4637;DHT22;2331;48.806;9.140;2022-09-17T15:12:42;14.50;1.00
4637;DHT22;2331;48.806;9.140;2022-09-17T15:15:16;14.70;1.00
4637;DHT22;2331;48.806;9.140;2022-09-17T15:17:43;14.70;1.00
4637;DHT22;2331;48.806;9.140;2022-09-17T15:20:16;14.70;1.00
4637;DHT22;2331;48.806;9.140;2022-09-17T15:22:48;14.40;1.00
4637;DHT22;2331;48.806;9.140;2022-09-17T15:25:19;14.20;1.00
4637;DHT22;2331;48.806;9.140;2022-09-17T15:27:48;14.20;1.00
4637;DHT22;2331;48.806;9.140;2022-09-17T15:30:18;14.10;1.00
